Aviation Digital Data Service (ADDS)

Output produced by METARs form (0829 UTC 24 September 2017)
found at http://aviationweather.gov/adds/metars/
 
KMIV 240528Z 2406/2506 VRB03KT 6SM BR SKC 
     FM241200 03005KT P6SM SKC 
     FM241800 06008KT P6SM SKC 
     FM242100 12005KT P6SM SKC 
     FM250100 VRB03KT P6SM SKC